createdAt,value
2018-07-30T00:01:36.692Z,42.99
2018-07-30T00:04:04.408Z,42.34
2018-07-30T00:06:32.000Z,42.68
2018-07-30T00:08:59.650Z,42.54
2018-07-30T00:11:27.251Z,42.02
2018-07-30T00:13:54.843Z,39.89
2018-07-30T00:16:22.539Z,41.14
2018-07-30T00:18:50.153Z,40.77
2018-07-30T00:21:18.120Z,42.22
2018-07-30T00:23:45.782Z,40.10
2018-07-30T00:26:13.511Z,42.35
2018-07-30T00:28:41.100Z,42.54
2018-07-30T00:31:08.818Z,40.55
2018-07-30T00:33:36.441Z,40.40
2018-07-30T00:36:05.012Z,40.68
2018-07-30T00:38:32.597Z,40.38
2018-07-30T00:41:00.384Z,40.85
2018-07-30T00:43:29.116Z,41.52
2018-07-30T00:45:56.671Z,40.39
2018-07-30T00:48:24.300Z,40.21
2018-07-30T00:50:51.934Z,39.76
2018-07-30T00:53:19.559Z,40.28
2018-07-30T00:55:47.539Z,40.78
2018-07-30T00:58:16.196Z,40.89
2018-07-30T01:00:43.827Z,39.82
2018-07-30T01:03:11.425Z,41.20
2018-07-30T01:05:39.029Z,41.09
2018-07-30T01:08:07.416Z,40.80
2018-07-30T01:10:35.032Z,40.76
2018-07-30T01:13:02.624Z,40.80
2018-07-30T01:15:30.235Z,40.80
2018-07-30T01:17:57.816Z,40.66
2018-07-30T01:20:25.805Z,40.21
2018-07-30T01:22:53.408Z,40.68
2018-07-30T01:25:21.043Z,40.57
2018-07-30T01:27:48.681Z,40.95
2018-07-30T01:30:16.231Z,41.29
2018-07-30T01:32:43.868Z,40.37
2018-07-30T01:35:11.440Z,41.01
2018-07-30T01:37:39.073Z,41.21
2018-07-30T01:40:06.743Z,40.46
2018-07-30T01:42:34.388Z,41.19
2018-07-30T01:45:02.032Z,40.72
2018-07-30T01:47:29.643Z,41.48
2018-07-30T01:49:57.208Z,41.13
2018-07-30T01:52:24.792Z,41.56
2018-07-30T01:54:52.409Z,41.60
2018-07-30T01:57:19.981Z,41.80
2018-07-30T01:59:47.555Z,42.00
2018-07-30T02:02:15.218Z,42.02
2018-07-30T02:04:42.804Z,41.31
2018-07-30T02:07:10.541Z,41.54
2018-07-30T02:09:38.172Z,41.52
2018-07-30T02:12:05.761Z,41.78
2018-07-30T02:14:33.369Z,41.84
2018-07-30T02:17:01.076Z,41.87
2018-07-30T02:19:28.658Z,42.19
2018-07-30T02:21:56.251Z,42.04
2018-07-30T02:24:24.055Z,41.36
2018-07-30T02:26:51.651Z,42.34
2018-07-30T02:29:19.239Z,42.27
2018-07-30T02:31:46.861Z,42.47
2018-07-30T02:34:14.467Z,41.85
2018-07-30T02:36:42.430Z,42.84
2018-07-30T02:39:12.529Z,42.04
2018-07-30T02:41:40.473Z,42.98
2018-07-30T02:44:08.170Z,42.42
2018-07-30T02:46:35.797Z,42.61
2018-07-30T02:49:03.374Z,42.92
2018-07-30T02:51:31.060Z,42.24
2018-07-30T02:53:58.703Z,42.90
2018-07-30T02:56:26.292Z,43.42
2018-07-30T02:58:53.958Z,44.02
2018-07-30T03:01:21.539Z,44.33
2018-07-30T03:03:49.175Z,42.75
2018-07-30T03:06:16.844Z,43.68
2018-07-30T03:08:44.444Z,43.89
2018-07-30T03:11:12.042Z,42.43
2018-07-30T03:13:39.612Z,42.96
2018-07-30T03:16:07.547Z,42.54
2018-07-30T03:18:35.435Z,42.61
2018-07-30T03:21:03.319Z,43.02
2018-07-30T03:23:30.934Z,42.77
2018-07-30T03:25:58.507Z,42.76
2018-07-30T03:28:26.192Z,42.73
2018-07-30T03:30:53.811Z,43.00
2018-07-30T03:33:21.784Z,43.28
2018-07-30T03:35:49.344Z,42.87
2018-07-30T03:38:16.944Z,42.74
2018-07-30T03:40:44.612Z,43.20
2018-07-30T03:43:12.251Z,43.57
2018-07-30T03:45:39.887Z,43.07
2018-07-30T03:48:07.544Z,43.38
2018-07-30T03:50:35.139Z,43.96
2018-07-30T03:53:02.804Z,44.08
2018-07-30T03:55:30.439Z,43.93
2018-07-30T03:57:58.033Z,45.42
2018-07-30T04:00:25.736Z,46.06
2018-07-30T04:02:53.289Z,46.15
2018-07-30T04:05:20.871Z,45.84
2018-07-30T04:07:48.499Z,46.10
2018-07-30T04:10:16.122Z,44.14
2018-07-30T04:12:43.734Z,44.54
2018-07-30T04:15:11.340Z,44.54
2018-07-30T04:17:38.921Z,45.46
2018-07-30T04:20:06.567Z,45.40
2018-07-30T04:22:34.192Z,45.85
2018-07-30T04:25:01.793Z,45.53
2018-07-30T04:27:29.407Z,45.79
2018-07-30T04:29:57.055Z,45.19
2018-07-30T04:32:24.659Z,45.24
2018-07-30T04:34:52.265Z,44.83
2018-07-30T04:37:20.339Z,45.06
2018-07-30T04:39:47.996Z,45.77
2018-07-30T04:42:15.564Z,45.32
2018-07-30T04:44:43.223Z,45.40
2018-07-30T04:47:10.817Z,46.64
2018-07-30T04:49:39.079Z,46.16
2018-07-30T04:52:06.835Z,46.76
2018-07-30T04:54:34.458Z,46.01
2018-07-30T04:57:02.114Z,46.88
2018-07-30T04:59:29.795Z,46.67
2018-07-30T05:01:57.688Z,47.14
2018-07-30T05:04:25.264Z,46.81
2018-07-30T05:06:52.938Z,46.37
2018-07-30T05:09:20.571Z,45.55
2018-07-30T05:11:48.135Z,45.49
2018-07-30T05:14:15.764Z,45.39
2018-07-30T05:16:43.328Z,45.38
2018-07-30T05:19:10.898Z,45.54
2018-07-30T05:21:38.543Z,45.58
2018-07-30T05:24:06.164Z,45.51
2018-07-30T05:26:33.748Z,45.24
2018-07-30T05:29:01.369Z,45.13
2018-07-30T05:31:29.967Z,45.20
2018-07-30T05:33:57.584Z,44.94
2018-07-30T05:36:25.200Z,44.79
2018-07-30T05:38:52.787Z,44.92
2018-07-30T05:41:20.447Z,45.08
2018-07-30T05:43:48.099Z,44.68
2018-07-30T05:46:15.675Z,44.67
2018-07-30T05:48:43.266Z,44.71
2018-07-30T05:51:10.908Z,44.24
2018-07-30T05:53:38.523Z,43.81
2018-07-30T05:56:07.823Z,43.70
2018-07-30T05:58:35.506Z,43.02
2018-07-30T06:01:03.197Z,43.43
2018-07-30T06:03:30.813Z,42.86
2018-07-30T06:05:58.980Z,42.58
2018-07-30T06:08:26.564Z,42.28
2018-07-30T06:10:54.144Z,42.87
2018-07-30T06:13:21.898Z,42.92
2018-07-30T06:15:49.504Z,42.55
2018-07-30T06:18:17.107Z,42.25
2018-07-30T06:20:44.767Z,42.03
2018-07-30T06:23:12.400Z,42.33
2018-07-30T06:25:39.995Z,41.42
2018-07-30T06:28:07.667Z,39.91
2018-07-30T06:30:35.269Z,40.12
2018-07-30T06:33:02.873Z,38.80
2018-07-30T06:35:30.535Z,38.88
2018-07-30T06:37:58.105Z,38.79
2018-07-30T06:40:25.715Z,38.26
2018-07-30T06:42:53.333Z,37.99
2018-07-30T06:45:20.900Z,38.28
2018-07-30T06:47:48.590Z,37.78
2018-07-30T06:50:16.636Z,37.48
2018-07-30T06:52:44.350Z,36.68
2018-07-30T06:55:12.049Z,36.37
2018-07-30T06:57:39.819Z,36.87
2018-07-30T07:00:11.093Z,37.03
2018-07-30T07:02:39.337Z,36.61
2018-07-30T07:05:11.387Z,35.63
2018-07-30T07:07:39.510Z,36.23
2018-07-30T07:10:17.051Z,36.18
2018-07-30T07:12:45.012Z,36.00
2018-07-30T07:15:24.191Z,36.10
2018-07-30T07:17:54.457Z,35.17
2018-07-30T07:20:45.122Z,35.25
2018-07-30T07:23:12.987Z,34.62
2018-07-30T07:25:43.519Z,34.29
2018-07-30T07:28:13.524Z,33.78
2018-07-30T07:30:41.676Z,33.59
2018-07-30T07:33:10.844Z,33.97
2018-07-30T07:35:38.739Z,34.04
2018-07-30T07:38:06.441Z,34.32
2018-07-30T07:40:34.135Z,33.74
2018-07-30T07:43:01.824Z,33.50
2018-07-30T07:45:29.428Z,32.21
2018-07-30T07:47:57.040Z,33.15
2018-07-30T07:50:24.974Z,31.67
2018-07-30T07:52:52.529Z,30.95
2018-07-30T07:55:20.137Z,31.21
2018-07-30T07:57:47.797Z,30.09
2018-07-30T08:00:15.739Z,31.58
2018-07-30T08:02:43.316Z,29.55
2018-07-30T08:05:10.960Z,29.57
2018-07-30T08:07:38.577Z,30.59
2018-07-30T08:10:06.940Z,29.39
2018-07-30T08:12:34.864Z,28.96
2018-07-30T08:15:02.541Z,27.74
2018-07-30T08:17:30.563Z,28.54
2018-07-30T08:19:58.192Z,27.86
2018-07-30T08:22:25.833Z,27.97
2018-07-30T08:24:53.508Z,27.55
2018-07-30T08:27:21.177Z,26.80
2018-07-30T08:29:48.808Z,26.79
2018-07-30T08:32:16.451Z,26.04
2018-07-30T08:34:44.100Z,26.33
2018-07-30T08:37:11.723Z,25.82
2018-07-30T08:39:39.304Z,26.02
2018-07-30T08:42:07.006Z,25.07
2018-07-30T08:44:35.003Z,24.13
2018-07-30T08:47:02.716Z,23.78
2018-07-30T08:49:30.355Z,22.86
2018-07-30T08:52:01.675Z,22.66
2018-07-30T08:54:29.328Z,21.82
2018-07-30T08:56:57.881Z,21.81
2018-07-30T08:59:26.746Z,21.71
2018-07-30T09:01:56.129Z,20.96
2018-07-30T09:04:31.855Z,21.45
2018-07-30T09:07:07.076Z,20.97
2018-07-30T09:09:44.755Z,21.06
2018-07-30T09:12:23.327Z,19.92
2018-07-30T09:26:58.447Z,19.32
2018-07-30T09:29:58.658Z,18.92
2018-07-30T10:12:03.093Z,17.00
2018-07-30T10:14:35.667Z,17.43
2018-07-30T10:17:07.366Z,17.06
2018-07-30T10:19:38.139Z,17.21
2018-07-30T10:22:06.525Z,17.22
2018-07-30T10:24:34.290Z,17.44
2018-07-30T10:27:02.568Z,17.18
2018-07-30T10:29:31.738Z,16.71
2018-07-30T10:31:59.916Z,16.98
2018-07-30T10:34:27.858Z,17.42
2018-07-30T10:36:55.551Z,16.92
2018-07-30T10:39:23.196Z,17.02
2018-07-30T10:41:50.926Z,16.50
2018-07-30T10:44:18.549Z,16.14
2018-07-30T10:46:46.220Z,16.09
2018-07-30T10:49:13.906Z,16.32
2018-07-30T10:51:41.587Z,15.99
2018-07-30T10:54:09.164Z,15.85
2018-07-30T10:56:36.762Z,15.53
2018-07-30T10:59:04.363Z,15.44
2018-07-30T11:01:31.960Z,15.42
2018-07-30T11:04:00.692Z,15.19
2018-07-30T11:06:28.307Z,14.80
2018-07-30T11:08:55.910Z,15.14
2018-07-30T11:11:23.593Z,14.63
2018-07-30T11:13:51.244Z,14.73
2018-07-30T11:16:19.212Z,14.45
2018-07-30T11:18:46.935Z,14.20
2018-07-30T11:21:14.549Z,13.66
2018-07-30T11:23:42.206Z,14.00
2018-07-30T11:26:09.922Z,14.26
2018-07-30T11:28:37.535Z,14.22
2018-07-30T11:31:05.211Z,14.16
2018-07-30T11:33:32.897Z,14.08
2018-07-30T11:36:00.794Z,14.81
2018-07-30T11:38:28.633Z,14.60
2018-07-30T11:40:56.251Z,13.55
2018-07-30T11:43:23.828Z,12.98
2018-07-30T11:45:51.590Z,12.93
2018-07-30T11:48:20.577Z,13.02
2018-07-30T11:50:48.177Z,12.31
2018-07-30T11:53:15.841Z,12.20
2018-07-30T11:55:43.432Z,12.23
2018-07-30T11:58:11.113Z,12.34
2018-07-30T12:00:38.711Z,12.25
2018-07-30T12:03:06.464Z,12.16
2018-07-30T12:05:34.118Z,11.05
2018-07-30T12:08:01.723Z,10.46
2018-07-30T12:10:29.319Z,11.58
2018-07-30T12:12:56.908Z,11.04
2018-07-30T12:15:24.559Z,11.48
2018-07-30T12:17:52.217Z,11.05
2018-07-30T12:20:20.276Z,11.06
2018-07-30T12:22:47.835Z,10.82
2018-07-30T12:25:15.832Z,10.54
2018-07-30T12:27:43.966Z,10.56
2018-07-30T12:30:11.566Z,10.43
2018-07-30T12:32:39.507Z,10.50
2018-07-30T12:35:07.140Z,10.48
2018-07-30T12:37:34.829Z,10.04
2018-07-30T12:40:02.852Z,10.50
2018-07-30T12:42:30.644Z,10.62
2018-07-30T12:44:58.466Z,10.29
2018-07-30T12:47:26.143Z,11.02
2018-07-30T12:49:53.720Z,12.77
2018-07-30T12:52:21.309Z,14.34
2018-07-30T12:54:48.943Z,14.63
2018-07-30T12:57:16.539Z,13.20
2018-07-30T12:59:44.153Z,12.50
2018-07-30T13:02:11.775Z,10.93
2018-07-30T13:04:39.379Z,11.46
2018-07-30T13:07:06.976Z,10.73
2018-07-30T13:09:34.648Z,10.51
2018-07-30T13:12:02.241Z,10.60
2018-07-30T13:14:30.009Z,10.89
2018-07-30T13:16:57.720Z,12.38
2018-07-30T13:19:25.291Z,12.89
2018-07-30T13:21:52.908Z,14.58
2018-07-30T13:24:20.654Z,15.34
2018-07-30T13:26:48.394Z,16.25
2018-07-30T13:29:24.029Z,16.61
2018-07-30T13:31:51.672Z,17.09
2018-07-30T13:34:19.316Z,17.49
2018-07-30T13:36:46.959Z,17.98
2018-07-30T13:39:14.557Z,16.65
2018-07-30T13:41:42.996Z,17.00
2018-07-30T13:44:14.682Z,17.48
2018-07-30T13:46:42.524Z,18.38
2018-07-30T13:49:10.399Z,16.98
2018-07-30T13:51:39.493Z,15.70
2018-07-30T13:54:07.400Z,13.94
2018-07-30T13:56:34.989Z,12.96
2018-07-30T13:59:02.706Z,12.54
2018-07-30T14:01:32.841Z,11.54
2018-07-30T14:04:00.630Z,12.33
2018-07-30T14:06:28.709Z,13.79
2018-07-30T14:08:56.323Z,14.83
2018-07-30T14:11:23.982Z,15.93
2018-07-30T14:13:51.976Z,16.85
2018-07-30T14:16:19.601Z,16.69
2018-07-30T14:18:47.411Z,17.51
2018-07-30T14:21:15.088Z,17.38
2018-07-30T14:23:42.706Z,17.52
2018-07-30T14:26:10.424Z,17.01
2018-07-30T14:28:38.072Z,17.75
2018-07-30T14:31:05.821Z,17.83
2018-07-30T14:33:33.527Z,17.85
2018-07-30T14:36:01.218Z,19.00
2018-07-30T14:38:28.861Z,17.55
2018-07-30T14:40:56.509Z,17.70
2018-07-30T14:43:24.152Z,17.41
2018-07-30T14:45:51.743Z,17.98
2018-07-30T14:48:19.449Z,18.28
2018-07-30T14:50:47.071Z,19.20
2018-07-30T14:53:14.721Z,19.20
2018-07-30T14:55:42.388Z,19.07
2018-07-30T14:58:10.122Z,19.68
2018-07-30T15:00:37.748Z,20.13
2018-07-30T15:03:05.427Z,20.67
2018-07-30T15:05:33.071Z,21.15
2018-07-30T15:08:00.701Z,21.39
2018-07-30T15:10:28.482Z,21.24
2018-07-30T15:12:56.129Z,21.75
2018-07-30T15:15:23.780Z,21.71
2018-07-30T15:17:51.548Z,21.48
2018-07-30T15:20:19.215Z,21.88
2018-07-30T15:22:46.855Z,21.97
2018-07-30T15:25:14.592Z,21.67
2018-07-30T15:27:43.380Z,22.30
2018-07-30T15:30:11.611Z,22.23
2018-07-30T15:32:39.304Z,22.76
2018-07-30T15:35:07.024Z,23.03
2018-07-30T15:37:34.807Z,23.52
2018-07-30T15:40:02.476Z,23.06
2018-07-30T15:42:30.162Z,23.80
2018-07-30T15:44:58.119Z,23.65
2018-07-30T15:47:25.757Z,23.53
2018-07-30T15:49:53.367Z,24.02
2018-07-30T15:52:20.948Z,24.47
2018-07-30T15:54:48.599Z,24.26
2018-07-30T15:57:16.841Z,24.50
2018-07-30T15:59:44.966Z,24.73
2018-07-30T16:02:12.644Z,24.08
2018-07-30T16:04:40.281Z,23.92
2018-07-30T16:07:07.881Z,23.42
2018-07-30T16:09:36.398Z,23.71
2018-07-30T16:12:04.596Z,23.17
2018-07-30T16:14:32.426Z,23.43
2018-07-30T16:17:00.176Z,22.18
2018-07-30T16:19:27.815Z,22.82
2018-07-30T16:21:55.564Z,22.57
2018-07-30T16:24:23.723Z,22.70
2018-07-30T16:26:51.768Z,22.95
2018-07-30T16:29:19.704Z,21.38
2018-07-30T16:31:47.356Z,22.76
2018-07-30T16:34:15.003Z,22.83
2018-07-30T16:36:42.644Z,22.69
2018-07-30T16:39:11.076Z,22.48
2018-07-30T16:41:38.832Z,22.31
2018-07-30T16:44:06.938Z,22.56
2018-07-30T16:46:34.557Z,22.58
2018-07-30T16:49:05.380Z,22.44
2018-07-30T16:51:35.022Z,22.66
2018-07-30T16:54:03.952Z,22.87
2018-07-30T16:56:35.686Z,22.57
2018-07-30T16:59:05.569Z,22.55
2018-07-30T17:01:34.833Z,22.17
2018-07-30T17:04:03.899Z,22.78
2018-07-30T17:06:33.124Z,22.94
2018-07-30T17:09:04.208Z,23.47
2018-07-30T17:11:33.046Z,23.30
2018-07-30T17:14:02.568Z,23.73
2018-07-30T17:16:31.148Z,22.98
2018-07-30T17:19:00.148Z,23.49
2018-07-30T17:21:29.640Z,23.19
2018-07-30T17:23:58.528Z,23.34
2018-07-30T17:26:29.779Z,23.83
2018-07-30T17:28:58.555Z,23.90
2018-07-30T17:31:27.430Z,24.33
2018-07-30T17:33:55.664Z,24.29
2018-07-30T17:36:23.996Z,24.66
2018-07-30T17:38:53.377Z,24.77
2018-07-30T17:41:21.867Z,25.09
2018-07-30T17:43:50.487Z,24.77
2018-07-30T17:46:18.204Z,25.38
2018-07-30T17:48:45.812Z,25.37
2018-07-30T17:51:13.480Z,25.81
2018-07-30T17:53:41.149Z,25.55
2018-07-30T17:56:08.810Z,26.16
2018-07-30T17:58:36.463Z,25.93
2018-07-30T18:01:04.141Z,26.02
2018-07-30T18:03:31.916Z,26.76
2018-07-30T18:05:59.581Z,26.41
2018-07-30T18:08:27.219Z,26.39
2018-07-30T18:10:54.923Z,27.72
2018-07-30T18:13:22.543Z,27.25
2018-07-30T18:15:50.132Z,27.58
2018-07-30T18:18:17.719Z,28.38
2018-07-30T18:20:45.347Z,28.22
2018-07-30T18:23:13.011Z,28.86
2018-07-30T18:25:40.608Z,28.40
2018-07-30T18:28:08.227Z,28.31
2018-07-30T18:30:35.823Z,29.26
2018-07-30T18:33:03.437Z,29.49
2018-07-30T18:35:31.509Z,29.41
2018-07-30T18:37:59.088Z,29.72
2018-07-30T18:40:26.685Z,30.32
2018-07-30T18:42:54.436Z,30.10
2018-07-30T18:45:22.036Z,30.61
2018-07-30T18:47:49.636Z,30.21
2018-07-30T18:50:17.264Z,31.04
2018-07-30T18:52:44.836Z,31.25
2018-07-30T18:55:12.460Z,31.08
2018-07-30T18:57:40.165Z,31.36
2018-07-30T19:00:07.846Z,31.76
2018-07-30T19:02:35.490Z,31.89
2018-07-30T19:05:03.319Z,31.69
2018-07-30T19:07:30.965Z,32.16
2018-07-30T19:09:58.543Z,32.26
2018-07-30T19:12:26.244Z,32.70
2018-07-30T19:14:53.851Z,32.27
2018-07-30T19:17:21.504Z,32.37
2018-07-30T19:19:49.200Z,32.58
2018-07-30T19:22:16.881Z,32.86
2018-07-30T19:24:44.480Z,33.13
2018-07-30T19:27:12.094Z,33.35
2018-07-30T19:29:39.910Z,33.57
2018-07-30T19:32:07.893Z,33.90
2018-07-30T19:34:35.542Z,34.18
2018-07-30T19:37:03.148Z,34.13
2018-07-30T19:39:30.795Z,34.04
2018-07-30T19:41:58.444Z,34.15
2018-07-30T19:44:26.077Z,34.83
2018-07-30T19:46:53.668Z,35.02
2018-07-30T19:49:22.400Z,34.85
2018-07-30T19:51:50.062Z,35.31
2018-07-30T19:54:17.639Z,35.10
2018-07-30T19:56:45.283Z,34.98
2018-07-30T19:59:12.921Z,35.53
2018-07-30T20:01:40.553Z,35.78
2018-07-30T20:04:08.192Z,35.50
2018-07-30T20:06:35.875Z,36.17
2018-07-30T20:09:05.623Z,36.64
2018-07-30T20:11:33.275Z,36.55
2018-07-30T20:14:00.867Z,36.30
2018-07-30T20:16:28.987Z,36.89
2018-07-30T20:18:56.674Z,37.50
2018-07-30T20:21:24.460Z,37.24
2018-07-30T20:23:52.040Z,37.44
2018-07-30T20:26:19.815Z,37.51
2018-07-30T20:28:47.956Z,37.99
2018-07-30T20:31:21.279Z,38.10
2018-07-30T20:33:48.924Z,37.97
2018-07-30T20:36:16.583Z,38.02
2018-07-30T20:38:44.250Z,37.61
2018-07-30T20:41:11.936Z,37.66
2018-07-30T20:43:39.571Z,38.10
2018-07-30T20:46:07.362Z,38.12
2018-07-30T20:48:35.027Z,38.03
2018-07-30T20:51:02.652Z,38.20
2018-07-30T20:53:31.103Z,38.86
2018-07-30T20:55:59.978Z,38.62
2018-07-30T20:58:28.713Z,38.70
2018-07-30T21:00:56.322Z,39.07
2018-07-30T21:03:24.032Z,38.98
2018-07-30T21:05:51.952Z,38.73
2018-07-30T21:08:19.836Z,39.29
2018-07-30T21:10:47.559Z,39.32
2018-07-30T21:13:16.278Z,39.09
2018-07-30T21:15:43.911Z,39.35
2018-07-30T21:18:11.648Z,38.36
2018-07-30T21:20:39.296Z,38.63
2018-07-30T21:23:06.963Z,37.89
2018-07-30T21:25:34.582Z,38.57
2018-07-30T21:28:02.208Z,38.78
2018-07-30T21:30:29.939Z,38.48
2018-07-30T21:32:57.613Z,38.37
2018-07-30T21:35:25.219Z,39.16
2018-07-30T21:37:52.945Z,38.64
2018-07-30T21:40:20.620Z,39.28
2018-07-30T21:42:48.401Z,39.40
2018-07-30T21:45:16.041Z,39.11
2018-07-30T21:47:43.789Z,39.16
2018-07-30T21:50:12.541Z,39.18
2018-07-30T21:52:40.161Z,39.75
2018-07-30T21:55:07.778Z,39.69
2018-07-30T21:57:35.465Z,39.64
2018-07-30T22:00:03.276Z,39.78
2018-07-30T22:02:30.957Z,39.67
2018-07-30T22:04:58.572Z,40.13
2018-07-30T22:07:26.201Z,40.38
2018-07-30T22:09:54.500Z,40.55
2018-07-30T22:12:22.233Z,40.58
2018-07-30T22:14:49.860Z,40.46
2018-07-30T22:17:17.746Z,40.63
2018-07-30T22:19:46.015Z,40.08
2018-07-30T22:22:14.042Z,39.79
2018-07-30T22:24:41.708Z,39.88
2018-07-30T22:27:09.298Z,40.65
2018-07-30T22:29:36.958Z,40.11
2018-07-30T22:32:04.716Z,40.40
2018-07-30T22:34:32.392Z,40.56
2018-07-30T22:37:00.092Z,40.55
2018-07-30T22:39:27.691Z,40.55
2018-07-30T22:41:55.308Z,40.70
2018-07-30T22:44:23.012Z,40.98
2018-07-30T22:46:50.608Z,39.71
2018-07-30T22:49:18.233Z,40.40
2018-07-30T22:51:45.893Z,40.61
2018-07-30T22:54:13.609Z,40.77
2018-07-30T22:56:41.272Z,40.58
2018-07-30T22:59:08.879Z,40.66
2018-07-30T23:01:36.518Z,41.29
2018-07-30T23:04:04.178Z,41.77
2018-07-30T23:06:32.033Z,41.32
2018-07-30T23:08:59.855Z,40.64
2018-07-30T23:11:27.527Z,39.34
2018-07-30T23:13:55.208Z,39.29
2018-07-30T23:16:22.910Z,38.58
2018-07-30T23:18:50.494Z,38.88
2018-07-30T23:21:18.197Z,38.72
2018-07-30T23:23:45.779Z,38.12
2018-07-30T23:26:13.478Z,37.87
2018-07-30T23:28:41.164Z,38.34
2018-07-30T23:31:08.772Z,38.56
2018-07-30T23:33:36.550Z,38.32
2018-07-30T23:36:04.172Z,38.58
2018-07-30T23:38:31.812Z,39.94
2018-07-30T23:40:59.530Z,39.39
2018-07-30T23:43:27.333Z,38.26
2018-07-30T23:45:55.009Z,37.94
2018-07-30T23:48:22.619Z,37.71
2018-07-30T23:50:50.239Z,37.67
2018-07-30T23:53:17.864Z,38.11
2018-07-30T23:55:45.444Z,38.19
2018-07-30T23:58:13.179Z,39.27
